createdAt,value
2022-09-09T00:00:00.752Z,96825.09
2022-09-09T00:01:22.073Z,96830.34
2022-09-09T00:02:28.686Z,96827.72
2022-09-09T00:03:39.712Z,96826.91
2022-09-09T00:04:42.331Z,96830.34
2022-09-09T00:05:54.687Z,96827.72
2022-09-09T00:07:18.283Z,96827.47
2022-09-09T00:08:21.879Z,96832.06
2022-09-09T00:09:27.294Z,96816.53
2022-09-09T00:10:30.634Z,96824.41
2022-09-09T00:11:38.020Z,96827.28
2022-09-09T00:12:50.364Z,96818.38
2022-09-09T00:13:55.010Z,96831.19
2022-09-09T00:15:00.593Z,96826.47
2022-09-09T00:16:09.244Z,96831.97
2022-09-09T00:17:16.545Z,96830.59
2022-09-09T00:18:18.266Z,96825.56
2022-09-09T00:19:32.704Z,96824.78
2022-09-09T00:20:44.951Z,96823.19
2022-09-09T00:22:09.997Z,96822.94
2022-09-09T00:23:12.019Z,96825.25
2022-09-09T00:24:26.870Z,96826.84
2022-09-09T00:25:36.189Z,96824.56
2022-09-09T00:26:48.527Z,96833.81
2022-09-09T00:27:51.842Z,96817.69
2022-09-09T00:29:01.925Z,96834.50
2022-09-09T00:30:24.276Z,96840.38
2022-09-09T00:31:30.478Z,96833.75
2022-09-09T00:32:36.949Z,96832.06
2022-09-09T00:33:39.899Z,96834.69
2022-09-09T00:35:03.795Z,96827.59
2022-09-09T00:36:10.950Z,96829.16
2022-09-09T00:37:12.853Z,96825.31
2022-09-09T00:38:26.467Z,96826.88
2022-09-09T00:39:38.688Z,96833.97
2022-09-09T00:40:53.300Z,96832.38
2022-09-09T00:42:05.338Z,96828.72
2022-09-09T00:43:22.570Z,96826.53
2022-09-09T00:44:24.365Z,96827.59
2022-09-09T00:45:32.823Z,96826.31
2022-09-09T00:46:34.722Z,96826.66
2022-09-09T00:47:36.740Z,96828.25
2022-09-09T00:48:44.794Z,96829.06
2022-09-09T00:49:49.670Z,96821.75
2022-09-09T00:50:59.622Z,96831.78
2022-09-09T00:52:24.036Z,96824.59
2022-09-09T00:53:32.909Z,96831.13
2022-09-09T00:54:53.317Z,96826.44
2022-09-09T00:56:00.523Z,96829.06
2022-09-09T00:57:12.790Z,96835.69
2022-09-09T00:58:14.854Z,96836.25
2022-09-09T00:59:37.472Z,96832.81
2022-09-09T01:00:43.218Z,96826.19
2022-09-09T01:01:45.771Z,96830.41
2022-09-09T01:02:50.534Z,96835.44
2022-09-09T01:03:56.039Z,96840.22
2022-09-09T01:05:07.316Z,96833.94
2022-09-09T01:06:27.885Z,96824.44
2022-09-09T01:07:29.760Z,96833.38
2022-09-09T01:08:40.889Z,96834.31
2022-09-09T01:09:43.650Z,96832.72
2022-09-09T01:10:54.734Z,96830.06
2022-09-09T01:12:02.469Z,96829.84
2022-09-09T01:13:06.878Z,96824.38
2022-09-09T01:14:20.518Z,96829.63
2022-09-09T01:15:25.831Z,96835.91
2022-09-09T01:16:29.205Z,96834.78
2022-09-09T01:17:48.117Z,96831.13
2022-09-09T01:18:54.272Z,96830.06
2022-09-09T01:19:59.060Z,96835.09
2022-09-09T01:21:09.092Z,96824.59
2022-09-09T01:22:30.391Z,96823.53
2022-09-09T01:23:39.858Z,96827.56
2022-09-09T01:25:11.057Z,96825.72
2022-09-09T01:26:39.215Z,96824.13
2022-09-09T01:27:43.207Z,96827.78
2022-09-09T01:28:46.808Z,96825.63
2022-09-09T01:29:49.009Z,96826.66
2022-09-09T01:30:50.959Z,96825.38
2022-09-09T01:31:59.725Z,96822.19
2022-09-09T01:33:03.012Z,96829.06
2022-09-09T01:34:10.651Z,96818.53
2022-09-09T01:35:28.923Z,96826.44
2022-09-09T01:36:34.793Z,96823.31
2022-09-09T01:37:36.614Z,96828.91
2022-09-09T01:38:38.474Z,96818.63
2022-09-09T01:39:42.418Z,96820.25
2022-09-09T01:40:44.573Z,96826.28
2022-09-09T01:41:46.439Z,96818.41
2022-09-09T01:42:48.288Z,96825.72
2022-09-09T01:43:50.559Z,96829.72
2022-09-09T01:44:52.405Z,96820.25
2022-09-09T01:45:56.025Z,96820.47
2022-09-09T01:46:58.026Z,96821.25
2022-09-09T01:48:00.896Z,96826.50
2022-09-09T01:49:05.203Z,96821.25
2022-09-09T01:50:09.488Z,96827.56
2022-09-09T01:51:14.136Z,96820.13
2022-09-09T01:52:16.032Z,96820.34
2022-09-09T01:53:18.884Z,96818.28
2022-09-09T01:54:22.032Z,96822.31
2022-09-09T01:55:34.706Z,96814.31
2022-09-09T01:56:48.413Z,96813.75
2022-09-09T01:57:56.377Z,96812.47
2022-09-09T01:59:04.132Z,96820.91
2022-09-09T02:00:11.525Z,96817.50
2022-09-09T02:01:29.717Z,96809.28
2022-09-09T02:02:37.961Z,96812.47
2022-09-09T02:03:40.715Z,96804.84
2022-09-09T02:04:44.498Z,96810.66
2022-09-09T02:05:52.378Z,96813.28
2022-09-09T02:06:57.127Z,96808.59
2022-09-09T02:08:09.946Z,96810.19
2022-09-09T02:09:14.252Z,96817.50
2022-09-09T02:10:22.855Z,96814.53
2022-09-09T02:11:25.919Z,96816.16
2022-09-09T02:12:29.149Z,96803.78
2022-09-09T02:13:33.999Z,96795.91
2022-09-09T02:14:42.412Z,96805.41
2022-09-09T02:15:48.942Z,96796.69
2022-09-09T02:16:58.646Z,96794.06
2022-09-09T02:18:03.351Z,96789.38
2022-09-09T02:19:27.034Z,96790.97
2022-09-09T02:20:34.978Z,96794.41
2022-09-09T02:21:37.998Z,96788.13
2022-09-09T02:22:41.520Z,96790.97
2022-09-09T02:23:44.212Z,96793.28
2022-09-09T02:24:47.472Z,96793.84
2022-09-09T02:25:53.210Z,96794.31
2022-09-09T02:26:56.726Z,96798.44
2022-09-09T02:28:01.452Z,96792.94
2022-09-09T02:29:05.957Z,96787.94
2022-09-09T02:30:08.366Z,96801.75
2022-09-09T02:31:10.487Z,96802.25
2022-09-09T02:32:17.451Z,96800.41
2022-09-09T02:33:19.632Z,96802.56
2022-09-09T02:34:22.871Z,96809.41
2022-09-09T02:35:27.817Z,96794.44
2022-09-09T02:36:32.239Z,96798.34
2022-09-09T02:37:38.035Z,96799.03
2022-09-09T02:38:44.096Z,96801.44
2022-09-09T02:39:46.052Z,96798.47
2022-09-09T02:40:48.016Z,96803.50
2022-09-09T02:41:49.986Z,96791.28
2022-09-09T02:42:51.850Z,96797.34
2022-09-09T02:43:53.671Z,96800.78
2022-09-09T02:44:55.568Z,96794.25
2022-09-09T02:46:06.277Z,96807.16
2022-09-09T02:47:16.962Z,96799.84
2022-09-09T02:48:27.453Z,96800.63
2022-09-09T02:49:59.098Z,96807.16
2022-09-09T02:51:07.878Z,96806.47
2022-09-09T02:52:13.165Z,96805.91
2022-09-09T02:53:19.286Z,96811.41
2022-09-09T02:54:32.442Z,96806.16
2022-09-09T02:55:43.773Z,96809.81
2022-09-09T02:56:51.217Z,96815.84
2022-09-09T02:57:53.891Z,96815.84
2022-09-09T02:58:55.713Z,96813.22
2022-09-09T03:00:00.296Z,96813.47
2022-09-09T03:01:04.228Z,96812.66
2022-09-09T03:02:06.125Z,96815.75
2022-09-09T03:03:10.073Z,96813.38
2022-09-09T03:04:11.827Z,96805.13
2022-09-09T03:05:14.344Z,96800.38
2022-09-09T03:06:16.248Z,96806.97
2022-09-09T03:07:18.349Z,96805.72
2022-09-09T03:08:20.220Z,96794.19
2022-09-09T03:09:22.098Z,96802.41
2022-09-09T03:10:24.591Z,96800.09
2022-09-09T03:11:26.523Z,96813.78
2022-09-09T03:12:28.382Z,96806.72
2022-09-09T03:13:30.318Z,96801.69
2022-09-09T03:14:32.418Z,96807.75
2022-09-09T03:15:34.786Z,96808.22
2022-09-09T03:16:36.638Z,96811.06
2022-09-09T03:17:38.872Z,96811.88
2022-09-09T03:18:40.672Z,96813.47
2022-09-09T03:19:42.472Z,96812.44
2022-09-09T03:20:44.330Z,96813.22
2022-09-09T03:21:47.126Z,96818.47
2022-09-09T03:22:48.966Z,96817.69
2022-09-09T03:23:50.717Z,96816.09
2022-09-09T03:24:52.975Z,96823.16
2022-09-09T03:25:58.081Z,96824.44
2022-09-09T03:27:00.087Z,96824.44
2022-09-09T03:28:01.999Z,96823.09
2022-09-09T03:29:03.925Z,96822.03
2022-09-09T03:30:06.320Z,96816.78
2022-09-09T03:31:12.012Z,96812.56
2022-09-09T03:32:14.461Z,96816.78
2022-09-09T03:33:17.515Z,96814.72
2022-09-09T03:34:19.323Z,96812.66
2022-09-09T03:35:21.195Z,96816.69
2022-09-09T03:36:22.967Z,96810.16
2022-09-09T03:37:24.925Z,96811.41
2022-09-09T03:38:26.778Z,96813.22
2022-09-09T03:39:28.576Z,96807.97
2022-09-09T03:40:30.327Z,96813.00
2022-09-09T03:41:32.537Z,96813.56
2022-09-09T03:42:34.350Z,96815.84
2022-09-09T03:43:36.205Z,96807.97
2022-09-09T03:44:38.197Z,96807.41
2022-09-09T03:45:40.082Z,96795.31
2022-09-09T03:46:42.025Z,96800.56
2022-09-09T03:47:43.855Z,96793.03
2022-09-09T03:48:45.642Z,96796.66
2022-09-09T03:49:47.908Z,96794.75
2022-09-09T03:50:51.006Z,96796.31
2022-09-09T03:51:52.817Z,96799.53
2022-09-09T03:52:54.698Z,96809.81
2022-09-09T03:53:58.100Z,96809.59
2022-09-09T03:54:59.898Z,96807.75
2022-09-09T03:56:01.923Z,96807.75
2022-09-09T03:57:03.964Z,96810.84
2022-09-09T03:58:06.334Z,96809.81
2022-09-09T03:59:09.883Z,96809.47
2022-09-09T04:00:11.878Z,96814.72
2022-09-09T04:01:15.345Z,96816.34
2022-09-09T04:02:17.235Z,96816.34
2022-09-09T04:03:19.304Z,96814.41
2022-09-09T04:04:21.349Z,96818.06
2022-09-09T04:05:23.176Z,96810.38
2022-09-09T04:06:25.932Z,96812.00
2022-09-09T04:07:29.365Z,96809.16
2022-09-09T04:08:34.460Z,96804.69
2022-09-09T04:09:36.216Z,96802.28
2022-09-09T04:10:38.433Z,96800.13
2022-09-09T04:11:40.209Z,96797.50
2022-09-09T04:12:44.866Z,96793.84
2022-09-09T04:13:48.575Z,96793.03
2022-09-09T04:14:50.443Z,96790.66
2022-09-09T04:15:56.871Z,96797.25
2022-09-09T04:17:00.732Z,96791.56
2022-09-09T04:18:02.537Z,96794.75
2022-09-09T04:19:05.605Z,96798.16
2022-09-09T04:20:09.719Z,96802.63
2022-09-09T04:21:13.098Z,96807.88
2022-09-09T04:22:14.935Z,96809.47
2022-09-09T04:23:17.342Z,96813.13
2022-09-09T04:24:19.212Z,96805.25
2022-09-09T04:25:21.055Z,96800.56
2022-09-09T04:26:23.177Z,96799.53
2022-09-09T04:27:25.053Z,96804.69
2022-09-09T04:28:28.002Z,96799.88
2022-09-09T04:29:29.860Z,96804.34
2022-09-09T04:30:31.610Z,96796.13
2022-09-09T04:31:33.465Z,96794.75
2022-09-09T04:32:35.424Z,96789.16
2022-09-09T04:33:40.286Z,96791.00
2022-09-09T04:34:42.982Z,96798.09
2022-09-09T04:35:49.058Z,96801.28
2022-09-09T04:36:52.876Z,96805.75
2022-09-09T04:37:54.656Z,96799.69
2022-09-09T04:38:56.520Z,96798.88
2022-09-09T04:39:58.539Z,96797.28
2022-09-09T04:41:00.470Z,96800.16
2022-09-09T04:42:03.191Z,96801.72
2022-09-09T04:43:06.067Z,96804.34
2022-09-09T04:44:08.000Z,96798.88
2022-09-09T04:45:12.382Z,96804.72
2022-09-09T04:46:14.336Z,96811.78
2022-09-09T04:47:16.309Z,96811.00
2022-09-09T04:48:18.275Z,96808.59
2022-09-09T04:49:20.126Z,96808.81
2022-09-09T04:50:22.097Z,96812.59
2022-09-09T04:51:23.976Z,96812.94
2022-09-09T04:52:25.783Z,96807.09
2022-09-09T04:53:28.314Z,96810.19
2022-09-09T04:54:30.219Z,96802.78
2022-09-09T04:55:32.506Z,96801.72
2022-09-09T04:56:34.329Z,96805.41
2022-09-09T04:57:36.167Z,96804.34
2022-09-09T04:58:38.612Z,96808.03
2022-09-09T04:59:40.681Z,96797.19
2022-09-09T05:00:43.675Z,96800.59
2022-09-09T05:01:45.636Z,96799.59
2022-09-09T05:02:48.951Z,96804.34
2022-09-09T05:03:50.922Z,96799.34
2022-09-09T05:04:52.787Z,96807.56
2022-09-09T05:05:54.595Z,96804.94
2022-09-09T05:06:57.033Z,96803.44
2022-09-09T05:08:05.979Z,96807.69
2022-09-09T05:09:07.815Z,96802.19
2022-09-09T05:10:09.829Z,96809.59
2022-09-09T05:11:18.977Z,96806.97
2022-09-09T05:12:20.843Z,96810.16
2022-09-09T05:13:24.169Z,96815.19
2022-09-09T05:14:25.846Z,96809.72
2022-09-09T05:15:27.602Z,96806.28
2022-09-09T05:16:29.715Z,96802.28
2022-09-09T05:17:31.669Z,96810.72
2022-09-09T05:18:33.479Z,96812.78
2022-09-09T05:19:35.371Z,96809.94
2022-09-09T05:20:37.817Z,96811.22
2022-09-09T05:21:39.674Z,96807.69
2022-09-09T05:22:41.741Z,96804.81
2022-09-09T05:23:43.715Z,96808.03
2022-09-09T05:24:45.503Z,96812.78
2022-09-09T05:25:56.721Z,96813.94
2022-09-09T05:27:00.492Z,96809.25
2022-09-09T05:28:02.551Z,96807.88
2022-09-09T05:29:04.477Z,96802.06
2022-09-09T05:30:06.516Z,96808.91
2022-09-09T05:31:09.621Z,96811.06
2022-09-09T05:32:15.400Z,96804.78
2022-09-09T05:33:17.480Z,96810.16
2022-09-09T05:34:19.318Z,96807.03
2022-09-09T05:35:21.970Z,96808.19
2022-09-09T05:36:24.691Z,96811.63
2022-09-09T05:37:27.485Z,96811.41
2022-09-09T05:38:30.263Z,96814.03
2022-09-09T05:39:32.374Z,96814.34
2022-09-09T05:40:34.117Z,96810.91
2022-09-09T05:41:36.800Z,96816.75
2022-09-09T05:42:38.693Z,96817.88
2022-09-09T05:43:40.502Z,96813.19
2022-09-09T05:46:17.605Z,96817.97
2022-09-09T05:47:19.355Z,96814.66
2022-09-09T05:48:21.316Z,96813.03
2022-09-09T05:49:23.076Z,96811.22
2022-09-09T05:50:26.745Z,96812.81
2022-09-09T05:51:31.644Z,96814.88
2022-09-09T05:52:33.998Z,96816.47
2022-09-09T05:53:35.871Z,96813.28
2022-09-09T05:54:38.773Z,96811.91
2022-09-09T05:55:40.634Z,96814.53
2022-09-09T05:56:42.746Z,96812.16
2022-09-09T05:57:49.300Z,96808.25
2022-09-09T05:58:51.192Z,96810.09
2022-09-09T05:59:52.995Z,96810.09
2022-09-09T06:01:02.079Z,96811.69
2022-09-09T06:02:04.121Z,96815.66
2022-09-09T06:03:06.286Z,96801.50
2022-09-09T06:04:08.685Z,96809.63
2022-09-09T06:05:11.983Z,96811.78
2022-09-09T06:06:15.675Z,96817.28
2022-09-09T06:07:18.006Z,96816.72
2022-09-09T06:08:19.771Z,96803.06
2022-09-09T06:09:21.656Z,96804.69
2022-09-09T06:10:23.575Z,96802.63
2022-09-09T06:11:27.678Z,96799.22
2022-09-09T06:12:29.492Z,96805.03
2022-09-09T06:13:31.677Z,96803.97
2022-09-09T06:14:33.531Z,96805.59
2022-09-09T06:15:35.430Z,96803.75
2022-09-09T06:16:39.021Z,96799.84
2022-09-09T06:17:42.802Z,96808.53
2022-09-09T06:18:45.096Z,96804.09
2022-09-09T06:19:46.849Z,96802.84
2022-09-09T06:20:55.757Z,96796.69
2022-09-09T06:21:57.565Z,96790.19
2022-09-09T06:22:59.328Z,96791.53
2022-09-09T06:24:01.517Z,96786.63
2022-09-09T06:25:03.376Z,96795.31
2022-09-09T06:26:07.174Z,96792.19
2022-09-09T06:27:09.009Z,96789.91
2022-09-09T06:28:10.969Z,96787.81
2022-09-09T06:29:12.852Z,96782.00
2022-09-09T06:30:15.005Z,96785.47
2022-09-09T06:31:18.742Z,96783.38
2022-09-09T06:32:20.673Z,96787.03
2022-09-09T06:33:22.423Z,96784.41
2022-09-09T06:34:24.570Z,96786.59
2022-09-09T06:35:26.482Z,96792.63
2022-09-09T06:36:32.345Z,96791.03
2022-09-09T06:37:34.204Z,96790.47
2022-09-09T06:38:36.241Z,96793.09
2022-09-09T06:39:38.285Z,96797.31
2022-09-09T06:40:41.142Z,96792.28
2022-09-09T06:41:43.985Z,96800.41
2022-09-09T06:42:46.190Z,96789.09
2022-09-09T06:43:48.451Z,96792.28
2022-09-09T06:44:50.209Z,96797.09
2022-09-09T06:45:57.905Z,96805.78
2022-09-09T06:46:59.832Z,96798.34
2022-09-09T06:48:01.648Z,96801.22
2022-09-09T06:49:04.046Z,96803.28
2022-09-09T06:50:07.426Z,96793.25
2022-09-09T06:51:09.236Z,96795.06
2022-09-09T06:52:11.114Z,96795.06
2022-09-09T06:53:12.940Z,96797.69
2022-09-09T06:54:14.672Z,96785.91
2022-09-09T06:55:17.313Z,96789.91
2022-09-09T06:56:19.090Z,96783.38
2022-09-09T06:57:36.302Z,96789.91
2022-09-09T06:58:45.391Z,96787.03
2022-09-09T06:59:47.218Z,96796.44
2022-09-09T07:00:49.378Z,96796.09
2022-09-09T07:01:55.866Z,96799.28
2022-09-09T07:02:58.007Z,96798.81
2022-09-09T07:04:00.574Z,96795.06
2022-09-09T07:05:02.358Z,96797.13
2022-09-09T07:06:05.443Z,96801.34
2022-09-09T07:07:07.638Z,96803.97
2022-09-09T07:08:09.922Z,96800.78
2022-09-09T07:09:13.053Z,96798.16
2022-09-09T07:10:14.907Z,96799.78
2022-09-09T07:11:16.702Z,96810.84
2022-09-09T07:12:18.438Z,96803.53
2022-09-09T07:13:22.274Z,96808.31
2022-09-09T07:14:24.057Z,96809.69
2022-09-09T07:15:26.457Z,96814.13
2022-09-09T07:16:33.052Z,96802.03
2022-09-09T07:17:34.832Z,96806.78
2022-09-09T07:18:36.837Z,96810.25
2022-09-09T07:19:38.843Z,96805.22
2022-09-09T07:20:40.702Z,96804.72
2022-09-09T07:21:42.999Z,96803.47
2022-09-09T07:22:44.820Z,96805.41
2022-09-09T07:23:46.617Z,96802.28
2022-09-09T07:24:48.496Z,96804.44
2022-09-09T07:25:50.974Z,96795.84
2022-09-09T07:26:53.480Z,96803.50
2022-09-09T07:27:56.372Z,96796.97
2022-09-09T07:28:59.070Z,96794.94
2022-09-09T07:30:00.937Z,96797.31
2022-09-09T07:31:06.706Z,96790.56
2022-09-09T07:32:08.702Z,96791.69
2022-09-09T07:33:13.746Z,96793.03
2022-09-09T07:34:15.508Z,96788.59
2022-09-09T07:35:17.349Z,96793.84
2022-09-09T07:36:39.262Z,96791.78
2022-09-09T07:37:41.182Z,96794.63
2022-09-09T07:38:47.211Z,96794.16
2022-09-09T07:39:49.241Z,96791.84
2022-09-09T07:40:51.099Z,96787.13
2022-09-09T07:41:53.019Z,96788.19
2022-09-09T07:42:55.011Z,96791.38
2022-09-09T07:43:57.382Z,96790.88
2022-09-09T07:44:59.224Z,96794.88
2022-09-09T07:46:02.779Z,96780.91
2022-09-09T07:47:04.675Z,96787.78
2022-09-09T07:48:06.960Z,96790.72
2022-09-09T07:49:08.874Z,96787.63
2022-09-09T07:50:11.438Z,96789.22
2022-09-09T07:51:18.209Z,96787.94
2022-09-09T07:52:21.919Z,96782.69
2022-09-09T07:53:24.378Z,96786.44
2022-09-09T07:54:27.495Z,96787.53
2022-09-09T07:55:29.471Z,96789.63
2022-09-09T07:56:33.557Z,96787.53
2022-09-09T07:57:35.765Z,96790.97
2022-09-09T07:58:38.647Z,96794.38
2022-09-09T07:59:40.545Z,96789.69
2022-09-09T08:00:44.856Z,96793.91
2022-09-09T08:01:48.736Z,96780.25
2022-09-09T08:02:50.667Z,96775.56
2022-09-09T08:04:00.525Z,96776.66
2022-09-09T08:05:02.317Z,96778.81
2022-09-09T08:06:05.268Z,96779.38
2022-09-09T08:07:07.589Z,96784.72
2022-09-09T08:08:10.352Z,96787.41
2022-09-09T08:09:12.226Z,96788.53
2022-09-09T08:10:16.006Z,96786.44
2022-09-09T08:11:18.832Z,96786.53
2022-09-09T08:12:20.768Z,96790.50
2022-09-09T08:13:22.646Z,96791.38
2022-09-09T08:14:24.578Z,96789.03
2022-09-09T08:15:26.359Z,96791.94
2022-09-09T08:16:29.467Z,96789.63
2022-09-09T08:17:31.299Z,96786.25
2022-09-09T08:18:33.319Z,96793.69
2022-09-09T08:19:37.907Z,96793.44
2022-09-09T08:20:39.776Z,96786.88
2022-09-09T08:21:42.706Z,96785.34
2022-09-09T08:22:44.901Z,96783.75
2022-09-09T08:23:48.295Z,96780.06
2022-09-09T08:24:50.123Z,96784.00
2022-09-09T08:25:51.864Z,96786.88
2022-09-09T08:26:55.119Z,96788.72
2022-09-09T08:27:57.071Z,96792.69
2022-09-09T08:29:00.148Z,96792.22
2022-09-09T08:30:01.913Z,96790.13
2022-09-09T08:31:08.188Z,96788.28
2022-09-09T08:32:10.197Z,96795.66
2022-09-09T08:33:11.941Z,96792.78
2022-09-09T08:34:13.765Z,96788.28
2022-09-09T08:35:15.759Z,96790.38
2022-09-09T08:36:19.415Z,96787.75
2022-09-09T08:37:21.701Z,96789.09
2022-09-09T08:38:23.558Z,96789.09
2022-09-09T08:39:25.570Z,96790.06
2022-09-09T08:40:30.187Z,96790.34
2022-09-09T08:41:50.440Z,96791.66
2022-09-09T08:42:55.328Z,96782.97
2022-09-09T08:44:04.003Z,96791.66
2022-09-09T08:45:21.300Z,96783.53
2022-09-09T08:46:30.519Z,96781.91
2022-09-09T08:47:52.670Z,96784.31
2022-09-09T08:48:57.880Z,96779.59
2022-09-09T08:50:11.792Z,96774.09
2022-09-09T08:51:15.060Z,96775.44
2022-09-09T08:52:23.083Z,96773.59
2022-09-09T08:53:27.646Z,96772.00
2022-09-09T08:54:51.021Z,96782.56
2022-09-09T08:55:56.919Z,96784.91
2022-09-09T08:56:58.794Z,96786.53
2022-09-09T08:58:03.116Z,96787.31
2022-09-09T08:59:06.442Z,96782.84
2022-09-09T09:00:11.690Z,96793.44
2022-09-09T09:01:21.661Z,96782.91
2022-09-09T09:02:29.503Z,96782.66
2022-09-09T09:03:51.831Z,96772.44
2022-09-09T09:05:00.381Z,96776.09
2022-09-09T09:06:08.583Z,96777.19
2022-09-09T09:07:22.476Z,96773.03
2022-09-09T09:08:42.412Z,96776.44
2022-09-09T09:09:44.981Z,96776.22
2022-09-09T09:10:50.594Z,96781.47
2022-09-09T09:12:02.069Z,96782.28
2022-09-09T09:13:04.645Z,96774.91
2022-09-09T09:14:26.693Z,96769.94
2022-09-09T09:15:32.822Z,96769.94
2022-09-09T09:16:39.930Z,96767.84
2022-09-09T09:17:44.460Z,96764.44
2022-09-09T09:18:46.252Z,96782.09
2022-09-09T09:19:49.290Z,96778.09
2022-09-09T09:21:00.139Z,96783.09
2022-09-09T09:22:11.509Z,96776.22
2022-09-09T09:23:33.542Z,96771.72
2022-09-09T09:24:38.348Z,96775.47
2022-09-09T09:25:42.713Z,96773.13
2022-09-09T09:26:44.734Z,96766.06
2022-09-09T09:28:01.871Z,96772.44
2022-09-09T09:29:14.089Z,96763.47
2022-09-09T09:30:26.805Z,96760.34
2022-09-09T09:31:31.565Z,96766.16
2022-09-09T09:32:36.286Z,96766.41
2022-09-09T09:33:51.812Z,96761.13
2022-09-09T09:34:57.387Z,96770.66
2022-09-09T09:36:01.163Z,96764.84
2022-09-09T09:37:06.286Z,96769.06
2022-09-09T09:41:07.186Z,96767.47
2022-09-09T09:42:16.366Z,96774.31
2022-09-09T09:43:25.169Z,96765.94
2022-09-09T09:44:31.249Z,96775.19
2022-09-09T09:45:36.326Z,96771.50
2022-09-09T09:46:38.887Z,96770.44
2022-09-09T09:47:41.907Z,96766.78
2022-09-09T09:48:43.752Z,96772.84
2022-09-09T09:49:55.729Z,96765.72
2022-09-09T09:51:02.545Z,96767.59
2022-09-09T09:52:05.665Z,96762.09
2022-09-09T09:53:07.770Z,96768.69
2022-09-09T09:54:16.329Z,96775.06
2022-09-09T09:55:18.180Z,96762.41
2022-09-09T09:56:27.229Z,96769.06
2022-09-09T09:57:31.221Z,96774.63
2022-09-09T09:58:35.304Z,96763.81
2022-09-09T09:59:39.998Z,96769.38
2022-09-09T10:00:50.243Z,96773.63
2022-09-09T10:01:52.162Z,96773.38
2022-09-09T10:02:54.748Z,96773.94
2022-09-09T10:04:00.312Z,96778.19
2022-09-09T10:05:15.235Z,96776.56
2022-09-09T10:06:17.052Z,96777.41
2022-09-09T10:07:20.625Z,96776.34
2022-09-09T10:08:25.263Z,96781.63
2022-09-09T10:09:27.114Z,96779.75
2022-09-09T10:10:36.520Z,96778.97
2022-09-09T10:11:58.556Z,96777.13
2022-09-09T10:13:19.844Z,96780.59
2022-09-09T10:14:23.504Z,96780.59
2022-09-09T10:15:31.341Z,96779.53
2022-09-09T10:16:33.138Z,96781.91
2022-09-09T10:17:34.845Z,96775.84
2022-09-09T10:19:00.212Z,96778.47
2022-09-09T10:20:11.218Z,96774.25
2022-09-09T10:21:25.037Z,96777.66
2022-09-09T10:22:33.873Z,96774.25
2022-09-09T10:23:47.600Z,96768.41
2022-09-09T10:24:55.535Z,96767.63
2022-09-09T10:26:15.596Z,96773.69
2022-09-09T10:27:36.083Z,96775.31
2022-09-09T10:28:53.323Z,96777.13
2022-09-09T10:30:03.761Z,96779.53
2022-09-09T10:31:08.398Z,96781.13
2022-09-09T10:32:30.983Z,96783.75
2022-09-09T10:33:46.257Z,96777.41
2022-09-09T10:34:51.321Z,96780.06
2022-09-09T10:36:02.412Z,96787.19
2022-09-09T10:37:12.810Z,96781.13
2022-09-09T10:38:16.142Z,96777.41
2022-09-09T10:39:40.622Z,96779.53
2022-09-09T10:40:45.814Z,96789.28
2022-09-09T10:42:05.282Z,96782.69
2022-09-09T10:43:27.348Z,96775.53
2022-09-09T10:44:37.125Z,96787.38
2022-09-09T10:45:57.064Z,96784.97
2022-09-09T10:47:17.563Z,96781.56
2022-09-09T10:48:38.512Z,96786.56
2022-09-09T10:49:40.323Z,96778.41
2022-09-09T10:52:16.549Z,96787.97
2022-09-09T10:53:34.470Z,96785.09
2022-09-09T10:54:45.162Z,96779.31
2022-09-09T10:55:50.322Z,96782.47
2022-09-09T10:56:57.960Z,96786.72
2022-09-09T10:58:01.876Z,96779.59
2022-09-09T10:59:06.456Z,96778.56
2022-09-09T11:00:16.032Z,96778.28
2022-09-09T11:01:24.020Z,96770.91
2022-09-09T11:02:30.553Z,96775.16
2022-09-09T11:03:34.620Z,96775.16
2022-09-09T11:04:40.960Z,96767.00
2022-09-09T11:05:58.101Z,96767.53
2022-09-09T11:07:07.468Z,96769.66
2022-09-09T11:09:32.645Z,96770.25
2022-09-09T11:10:41.648Z,96770.78
2022-09-09T11:11:47.371Z,96765.81
2022-09-09T11:12:51.761Z,96774.28
2022-09-09T11:13:54.003Z,96771.34
2022-09-09T11:15:00.988Z,96777.44
2022-09-09T11:16:07.369Z,96774.53
2022-09-09T11:17:15.478Z,96781.66
2022-09-09T11:18:21.189Z,96782.47
2022-09-09T11:19:28.162Z,96779.56
2022-09-09T11:20:30.035Z,96785.09
2022-09-09T11:21:35.664Z,96782.44
2022-09-09T11:22:40.409Z,96775.81
2022-09-09T11:23:45.029Z,96782.16
2022-09-09T11:24:49.209Z,96784.78
2022-09-09T11:25:58.196Z,96784.53
2022-09-09T11:27:04.354Z,96784.53
2022-09-09T11:28:30.266Z,96784.53
2022-09-09T11:29:50.991Z,96788.75
2022-09-09T11:31:13.042Z,96786.13
2022-09-09T11:32:29.358Z,96783.47
2022-09-09T11:33:58.673Z,96787.47
2022-09-09T11:35:27.937Z,96788.25
2022-09-09T11:36:50.661Z,96786.66
2022-09-09T11:37:58.294Z,96786.66
2022-09-09T11:39:11.243Z,96787.72
2022-09-09T11:40:15.891Z,96789.56
2022-09-09T11:41:21.604Z,96795.34
2022-09-09T11:42:25.532Z,96792.16
2022-09-09T11:43:27.336Z,96790.31
2022-09-09T11:44:31.340Z,96791.66
2022-09-09T11:45:35.327Z,96795.09
2022-09-09T11:46:39.453Z,96791.41
2022-09-09T11:47:41.308Z,96790.38
2022-09-09T11:48:47.091Z,96794.84
2022-09-09T11:49:49.826Z,96793.00
2022-09-09T11:50:59.390Z,96796.69
2022-09-09T11:52:12.318Z,96793.25
2022-09-09T11:53:15.028Z,96798.53
2022-09-09T11:54:33.405Z,96803.81
2022-09-09T11:55:35.972Z,96800.94
2022-09-09T11:56:47.311Z,96798.28
2022-09-09T11:57:49.751Z,96797.22
2022-09-09T11:58:59.575Z,96799.88
2022-09-09T12:00:01.856Z,96793.78
2022-09-09T12:01:14.052Z,96800.38
2022-09-09T12:02:23.687Z,96798.78
2022-09-09T12:03:31.608Z,96804.06
2022-09-09T12:04:38.210Z,96798.78
2022-09-09T12:05:47.078Z,96795.09
2022-09-09T12:06:57.371Z,96791.16
2022-09-09T12:08:00.151Z,96789.28
2022-09-09T12:09:27.935Z,96789.28
2022-09-09T12:10:34.267Z,96783.78
2022-09-09T12:11:36.054Z,96790.38
2022-09-09T12:12:43.205Z,96779.03
2022-09-09T12:13:53.649Z,96787.50
2022-09-09T12:14:58.495Z,96784.84
2022-09-09T12:16:02.017Z,96780.34
2022-09-09T12:17:23.953Z,96780.91
2022-09-09T12:18:39.474Z,96783.53
2022-09-09T12:19:41.516Z,96785.94
2022-09-09T12:20:53.486Z,96778.56
2022-09-09T12:21:58.184Z,96777.75
2022-09-09T12:23:02.624Z,96773.81
2022-09-09T12:24:09.487Z,96777.28
2022-09-09T12:25:25.214Z,96777.00
2022-09-09T12:26:41.216Z,96781.50
2022-09-09T12:27:47.589Z,96778.31
2022-09-09T12:28:52.231Z,96776.69
2022-09-09T12:29:59.557Z,96772.47
2022-09-09T12:31:24.684Z,96775.13
2022-09-09T12:32:27.282Z,96775.13
2022-09-09T12:33:36.348Z,96768.78
2022-09-09T12:34:42.774Z,96767.44
2022-09-09T12:35:46.324Z,96769.53
2022-09-09T12:36:53.921Z,96767.69
2022-09-09T12:37:59.332Z,96765.06
2022-09-09T12:39:12.143Z,96761.38
2022-09-09T12:40:17.260Z,96766.13
2022-09-09T12:41:28.843Z,96766.66
2022-09-09T12:42:30.754Z,96770.34
2022-09-09T12:43:33.388Z,96770.34
2022-09-09T12:44:35.248Z,96774.03
2022-09-09T12:45:42.338Z,96762.69
2022-09-09T12:46:46.254Z,96762.41
2022-09-09T12:47:53.815Z,96752.66
2022-09-09T12:48:56.681Z,96754.47
2022-09-09T12:49:58.828Z,96751.84
2022-09-09T12:51:01.711Z,96752.91
2022-09-09T12:52:07.134Z,96749.19
2022-09-09T12:53:11.666Z,96751.06
2022-09-09T12:54:15.411Z,96744.75
2022-09-09T12:55:26.461Z,96750.81
2022-09-09T12:56:32.732Z,96746.31
2022-09-09T12:57:37.659Z,96750.03
2022-09-09T12:58:41.082Z,96749.19
2022-09-09T12:59:44.019Z,96755.03